Tropical Cyclones
[Index]
Main Index Home Page Stock Weather Photos Extreme Storms Discussion Storm News and Storm Chasing Reports Tropical Cyclones / Hurricanes / Typhoons Weather Data and Links Wild Fires / Bushfires Weather Observation Techniques Weather Picture Catalogue Tornado Pictures and Reports Stock Video Footage and DVDs for sale
Season 1984-1985 Tropical Cyclone HUBERT Track Map
Season 1984-1985 Summaries: [BoM-AU] [JTWC-AU] [JTWC-SIO] [JTWC-SPAC] [JTWC-SH]
<<- Previous TC | BoM 1984-1985 Season | Next TC ->>

click for intensity scale information  Lat/long Grid: Show Hide

 Date Labels: Show Hide

Bureau of Meteorology Tropical Cyclone Data

Name: HUBERT
Number: 669 / 198485_07

10 Feb 1985 00:00 UTC to 19 Feb 1985 06:00 UTC

    date/time    lat    long    hPa   cat  kts
1985-02-10 00   14.2   129.0   1001                     
1985-02-10 06   14.2   128.5    999                     
1985-02-10 12   14.3   127.9    998                     
1985-02-10 18   14.3   127.3    998                     
1985-02-11 00   14.4   126.5    997         35          
1985-02-11 06   14.6   125.7    996         37          
1985-02-11 12   14.9   124.9    995    1    39          
1985-02-11 18   15.3   124.0    993    1    43          
1985-02-12 00   15.8   123.2    990    1    47          
1985-02-12 06   15.8   122.2    987    1    51          
1985-02-12 12   15.8   120.4    984    2    54          
1985-02-12 18   15.8   120.0    976    2    66          
1985-02-13 00   16.0   118.9    973    2    70          
1985-02-13 06   16.2   117.4    969    3    74          
1985-02-13 12   16.5   116.1    962    3    76          
1985-02-13 18   17.0   114.4    954    4    91          
1985-02-14 00   17.4   112.4    954    4    91          
1985-02-14 06   17.8   110.6    956    3    89          
1985-02-14 12   18.3   109.0    959    3    86          
1985-02-14 18   18.9   107.3    961    3    84          
1985-02-15 00   19.3   105.5    963    3    82          
1985-02-15 06   19.5   103.5    964    3    80          
1985-02-15 12   19.4   101.5    970    3    74          
1985-02-15 18   19.2    99.6    978    2    64          
1985-02-16 00   19.0    97.8    981    2    60          
1985-02-16 06   18.8    96.0    985    2    54          
1985-02-16 12   18.6    94.8    986    1    52          
1985-02-16 18   18.4    93.7    987    1    51          
1985-02-17 00   18.3    92.2    988    1    51          
1985-02-17 06   18.4    90.7    988    1    51          
1985-02-17 12   18.5    89.3    989    1    47          
1985-02-17 18   18.6    88.0    990    1    47          
1985-02-18 00   18.7    86.8    992    1    43          
1985-02-18 06   18.9    85.8    993    1    43          
1985-02-18 12   19.2    84.9    995    1    37          
1985-02-18 18   19.5    84.0    997         35          
1985-02-19 00   19.9    83.0    999                     
1985-02-19 06   20.5    82.0    999                     
Winds are 10-min average.

Tropical cyclone tracks developed by Michael Bath using data from the Bureau of Meteorology and Google Maps.


[Australian Severe Weather index] [Copyright Notice] [Email Contacts] [Search This Site] [Privacy Policy]
Document: tropical_cyclone_hubert.htm Updated: 30 May 2013